Time;durP1;ratioP1;P1;durP2;ratioP2;P2;SDS_P1;SDS_P2;PMS_P1;PMS_P2;Temp;Humidity;BMP_temperature;BMP_pressure;BME280_temperature;BME280_humidity;BME280_pressure;Samples;Min_cycle;Max_cycle;Signal;HPM_P1;HPM_P2
2023/06/17 00:01:59;;;;;;;15.07;13.68;;;14.10;99.90;;;;;;4981916;28;20437;-73
2023/06/17 00:04:25;;;;;;;15.18;13.60;;;14.10;99.90;;;;;;4972859;28;20057;-72
2023/06/17 00:06:53;;;;;;;16.65;15.15;;;14.10;99.90;;;;;;5001763;28;20038;-73
2023/06/17 00:09:20;;;;;;;14.65;13.25;;;14.10;99.90;;;;;;4985488;28;20053;-79
2023/06/17 00:11:47;;;;;;;16.88;15.27;;;14.10;99.90;;;;;;4986322;28;20442;-79
2023/06/17 00:14:14;;;;;;;19.52;16.30;;;14.00;99.90;;;;;;5003615;28;20408;-79
2023/06/17 00:16:43;;;;;;;15.15;13.55;;;14.00;99.90;;;;;;5002539;28;20045;-80
2023/06/17 00:19:20;;;;;;;16.33;14.57;;;14.00;99.90;;;;;;4989289;28;20057;-79
2023/06/17 00:21:49;;;;;;;18.98;17.23;;;13.90;99.90;;;;;;4985163;28;20122;-79
2023/06/17 00:24:16;;;;;;;15.15;13.63;;;13.90;99.90;;;;;;4987204;28;20046;-79
2023/06/17 00:26:46;;;;;;;15.20;13.75;;;13.80;99.90;;;;;;4969656;28;20076;-80
2023/06/17 00:29:15;;;;;;;19.90;18.10;;;13.80;99.90;;;;;;4987465;28;20041;-80
2023/06/17 00:31:44;;;;;;;22.23;20.20;;;13.80;99.90;;;;;;4987613;28;20073;-80
2023/06/17 00:34:13;;;;;;;20.60;18.60;;;13.80;99.90;;;;;;4998453;28;20088;-80
2023/06/17 00:36:38;;;;;;;16.60;14.98;;;13.80;99.90;;;;;;5022659;28;20049;-79
2023/06/17 00:39:07;;;;;;;19.27;17.40;;;13.80;99.90;;;;;;5022135;28;20539;-79
2023/06/17 00:41:32;;;;;;;23.13;21.02;;;13.80;99.90;;;;;;4989185;28;20526;-80
2023/06/17 00:43:59;;;;;;;19.30;17.17;;;13.80;99.90;;;;;;4996944;28;20045;-80
2023/06/17 00:46:35;;;;;;;22.48;20.23;;;13.80;99.90;;;;;;5000254;28;20091;-73
2023/06/17 00:49:03;;;;;;;25.25;22.95;;;13.90;99.90;;;;;;5021436;28;20052;-73
2023/06/17 00:51:32;;;;;;;21.15;19.20;;;13.90;99.90;;;;;;4989093;28;20048;-80
2023/06/17 00:54:01;;;;;;;18.58;16.98;;;13.90;99.90;;;;;;5006131;28;20048;-73
2023/06/17 00:56:28;;;;;;;24.45;22.25;;;14.00;99.90;;;;;;5007154;28;20045;-73
2023/06/17 00:58:56;;;;;;;27.40;24.90;;;14.10;99.90;;;;;;5006437;28;20041;-72
2023/06/17 01:01:24;;;;;;;20.92;19.00;;;14.10;99.90;;;;;;5025859;28;20132;-73
2023/06/17 01:03:52;;;;;;;20.98;19.13;;;14.20;99.90;;;;;;5041309;28;20048;-73
2023/06/17 01:06:33;;;;;;;27.70;25.35;;;14.20;99.90;;;;;;5023212;28;20056;-72
2023/06/17 01:09:06;;;;;;;27.17;24.58;;;14.30;99.90;;;;;;5010804;28;20108;-73
2023/06/17 01:11:35;;;;;;;23.98;21.77;;;14.30;99.90;;;;;;5018465;28;20124;-73
2023/06/17 01:14:02;;;;;;;23.20;21.08;;;14.40;99.90;;;;;;5027240;28;21750;-73
2023/06/17 01:16:32;;;;;;;22.20;20.30;;;14.50;99.90;;;;;;5000139;28;20076;-73
2023/06/17 01:19:03;;;;;;;28.48;26.05;;;14.50;99.90;;;;;;5001464;28;20064;-73
2023/06/17 01:21:30;;;;;;;24.73;22.65;;;14.60;99.90;;;;;;4999982;28;20057;-73
2023/06/17 01:24:00;;;;;;;23.67;21.42;;;14.70;99.90;;;;;;5014795;28;20117;-73
2023/06/17 01:26:28;;;;;;;24.42;22.17;;;14.70;99.90;;;;;;5000290;28;20045;-73
2023/06/17 01:28:59;;;;;;;22.98;20.73;;;14.70;99.90;;;;;;4966758;28;20695;-73
2023/06/17 01:31:26;;;;;;;23.38;21.27;;;14.80;99.90;;;;;;4997285;28;20533;-73
2023/06/17 01:33:57;;;;;;;22.35;20.33;;;14.80;99.90;;;;;;4999291;28;20060;-73
2023/06/17 01:36:27;;;;;;;;;;;14.90;99.90;;;;;;4976415;28;20057;-72
2023/06/17 01:39:03;;;;;;;24.10;21.80;;;14.90;99.90;;;;;;4978965;28;19936;-73
2023/06/17 01:41:38;;;;;;;24.30;21.90;;;15.00;99.90;;;;;;4984687;28;20851;-73
2023/06/17 01:44:07;;;;;;;26.75;24.10;;;15.10;99.90;;;;;;4999000;28;20052;-75
2023/06/17 01:46:34;;;;;;;25.23;22.65;;;15.10;99.90;;;;;;4980701;28;21404;-72
2023/06/17 01:49:08;;;;;;;25.23;22.88;;;15.10;99.90;;;;;;4956775;28;20633;-72
2023/06/17 01:51:34;;;;;;;23.80;21.30;;;15.10;99.90;;;;;;4999452;28;20080;-72
2023/06/17 01:53:59;;;;;;;23.15;21.05;;;15.30;99.90;;;;;;4971338;28;20045;-72
2023/06/17 01:56:25;;;;;;;24.60;22.40;;;15.30;99.90;;;;;;4987144;28;20036;-72
2023/06/17 01:58:51;;;;;;;26.20;23.70;;;15.30;99.90;;;;;;5004660;28;20613;-72
2023/06/17 02:01:17;;;;;;;30.15;27.25;;;15.30;99.90;;;;;;5003710;28;20049;-72
2023/06/17 02:03:43;;;;;;;24.13;21.73;;;15.40;99.90;;;;;;5018721;28;20131;-72
2023/06/17 02:06:08;;;;;;;27.42;24.98;;;15.40;99.90;;;;;;5022531;28;20049;-72
2023/06/17 02:08:34;;;;;;;28.27;25.48;;;15.50;99.90;;;;;;4989635;28;20080;-72
2023/06/17 02:11:01;;;;;;;27.92;25.40;;;15.50;99.90;;;;;;4980009;28;20108;-72
2023/06/17 02:13:27;;;;;;;32.15;29.02;;;15.50;99.90;;;;;;5003122;28;20052;-73
2023/06/17 02:15:56;;;;;;;28.05;25.33;;;15.50;99.90;;;;;;4998346;28;20417;-73
2023/06/17 02:18:22;;;;;;;35.15;31.60;;;15.60;99.90;;;;;;5000494;28;20052;-73
2023/06/17 02:20:48;;;;;;;30.92;27.73;;;15.60;99.90;;;;;;4996988;28;20045;-73
2023/06/17 02:23:17;;;;;;;26.98;24.63;;;15.60;99.90;;;;;;4968795;28;20730;-73
2023/06/17 02:25:43;;;;;;;31.25;28.25;;;15.60;99.90;;;;;;4999712;28;20029;-73
2023/06/17 02:28:08;;;;;;;29.33;26.52;;;15.60;99.90;;;;;;4998898;28;20055;-73
2023/06/17 02:30:35;;;;;;;29.85;26.95;;;15.60;99.90;;;;;;5004404;28;20136;-73
2023/06/17 02:33:00;;;;;;;34.70;31.25;;;15.60;99.90;;;;;;5013367;28;20037;-73
2023/06/17 02:35:27;;;;;;;32.45;29.15;;;15.60;99.90;;;;;;5000585;28;20048;-73
2023/06/17 02:37:54;;;;;;;30.25;26.48;;;15.60;99.90;;;;;;5001222;28;20079;-73
2023/06/17 02:40:20;;;;;;;32.53;29.30;;;15.60;99.90;;;;;;4999393;28;20481;-73
2023/06/17 02:42:46;;;;;;;30.80;27.88;;;15.60;99.90;;;;;;5005178;28;20037;-73
2023/06/17 02:45:12;;;;;;;29.38;26.65;;;15.60;99.90;;;;;;5003462;28;20040;-73
2023/06/17 02:47:40;;;;;;;32.38;29.20;;;15.60;99.90;;;;;;4994941;28;20053;-73
2023/06/17 02:50:07;;;;;;;30.20;27.23;;;15.60;99.90;;;;;;5009729;28;20493;-73
2023/06/17 02:52:34;;;;;;;33.72;30.33;;;15.60;99.90;;;;;;5026241;28;20052;-80
2023/06/17 02:55:04;;;;;;;26.60;24.20;;;15.60;99.90;;;;;;4990653;28;20044;-80
2023/06/17 02:57:30;;;;;;;30.73;27.65;;;15.60;99.90;;;;;;5023866;28;20233;-80
2023/06/17 02:59:56;;;;;;;37.35;33.63;;;15.60;99.90;;;;;;4995243;28;20493;-81
2023/06/17 03:02:22;;;;;;;29.98;27.05;;;15.60;99.90;;;;;;5007080;28;20052;-73
2023/06/17 03:04:48;;;;;;;34.85;31.35;;;15.60;99.90;;;;;;5024081;28;20040;-71
2023/06/17 03:07:15;;;;;;;36.03;32.40;;;15.60;99.90;;;;;;5010912;28;20551;-73
2023/06/17 03:09:44;;;;;;;37.08;33.28;;;15.60;99.90;;;;;;5011463;28;20048;-73
2023/06/17 03:12:11;;;;;;;35.17;31.80;;;15.60;99.90;;;;;;5026648;28;20591;-72
2023/06/17 03:14:36;;;;;;;31.52;28.63;;;15.50;99.90;;;;;;5013022;28;20044;-73
2023/06/17 03:17:02;;;;;;;29.23;26.33;;;15.50;99.90;;;;;;5012551;28;20502;-73
2023/06/17 03:19:28;;;;;;;35.13;31.67;;;15.60;99.90;;;;;;5025847;28;20528;-73
2023/06/17 03:21:54;;;;;;;34.03;30.58;;;15.60;99.90;;;;;;5028402;28;20044;-72
2023/06/17 03:24:20;;;;;;;32.30;29.00;;;15.60;99.90;;;;;;4997191;28;20047;-72
2023/06/17 03:26:46;;;;;;;34.60;31.20;;;15.50;99.90;;;;;;5011397;28;20530;-72
2023/06/17 03:29:15;;;;;;;33.92;30.70;;;15.50;99.90;;;;;;4995841;28;20077;-72
2023/06/17 03:31:44;;;;;;;30.65;27.83;;;15.50;99.90;;;;;;4991175;28;20041;-72
2023/06/17 03:34:10;;;;;;;34.70;31.50;;;15.50;99.90;;;;;;5012100;28;20136;-73
2023/06/17 03:36:36;;;;;;;32.63;29.70;;;15.60;99.90;;;;;;5009505;28;20411;-73
2023/06/17 03:39:03;;;;;;;29.58;26.67;;;15.60;99.90;;;;;;5010283;28;20401;-73
2023/06/17 03:41:29;;;;;;;33.03;29.92;;;15.60;99.90;;;;;;5027913;28;20053;-72
2023/06/17 03:43:54;;;;;;;34.00;30.80;;;15.50;99.90;;;;;;5010736;28;20044;-73
2023/06/17 03:46:20;;;;;;;35.28;32.00;;;15.50;99.90;;;;;;4992327;28;20067;-73
2023/06/17 03:48:46;;;;;;;32.60;29.58;;;15.40;99.90;;;;;;5027842;28;20091;-73
2023/06/17 03:51:16;;;;;;;38.70;35.05;;;15.40;99.90;;;;;;5011002;28;20061;-73
2023/06/17 03:53:42;;;;;;;33.25;29.98;;;15.50;99.90;;;;;;5010049;28;20045;-72
2023/06/17 03:56:08;;;;;;;34.55;31.08;;;15.50;99.90;;;;;;5028803;28;20476;-72
2023/06/17 03:58:37;;;;;;;33.15;30.05;;;15.50;99.90;;;;;;5010811;28;20057;-73
2023/06/17 04:01:03;;;;;;;37.22;33.33;;;15.50;99.90;;;;;;5003007;28;20045;-73
2023/06/17 04:03:29;;;;;;;35.90;32.45;;;15.50;99.90;;;;;;5002094;28;20076;-73
2023/06/17 04:05:54;;;;;;;28.52;26.02;;;15.50;99.90;;;;;;5009576;28;20131;-72
2023/06/17 04:08:22;;;;;;;29.05;26.33;;;15.60;99.90;;;;;;5007679;28;20500;-72
2023/06/17 04:10:49;;;;;;;30.40;27.70;;;15.60;99.90;;;;;;5011246;28;20045;-73
2023/06/17 04:13:15;;;;;;;29.40;26.70;;;15.60;99.90;;;;;;4996240;28;20106;-73
2023/06/17 04:15:47;;;;;;;33.50;30.23;;;15.60;99.90;;;;;;5028581;28;20443;-73
2023/06/17 04:18:13;;;;;;;35.10;31.50;;;15.70;99.90;;;;;;5009063;28;20128;-73
2023/06/17 04:20:40;;;;;;;30.73;27.70;;;15.60;99.90;;;;;;5026227;28;20571;-74
2023/06/17 04:23:06;;;;;;;33.33;30.05;;;15.60;99.90;;;;;;5008098;28;20425;-80
2023/06/17 04:25:32;;;;;;;31.95;28.92;;;15.70;99.90;;;;;;4994956;28;20404;-80
2023/06/17 04:28:06;;;;;;;34.40;31.02;;;15.60;99.90;;;;;;4993849;28;20037;-80
2023/06/17 04:30:33;;;;;;;32.15;29.00;;;15.60;99.90;;;;;;5027044;28;20045;-80
2023/06/17 04:33:00;;;;;;;29.17;26.48;;;15.60;99.90;;;;;;5009232;28;20055;-80
2023/06/17 04:35:29;;;;;;;28.52;25.83;;;15.60;99.90;;;;;;5045106;28;20803;-80
2023/06/17 04:37:55;;;;;;;33.43;30.33;;;15.60;99.90;;;;;;4993286;28;20036;-80
2023/06/17 04:40:23;;;;;;;29.65;26.60;;;15.60;99.90;;;;;;5027782;28;20576;-80
2023/06/17 04:42:52;;;;;;;33.63;30.25;;;15.70;99.90;;;;;;5026154;28;20061;-81
2023/06/17 04:45:18;;;;;;;29.58;26.77;;;15.70;99.90;;;;;;5025678;28;20041;-80
2023/06/17 04:47:44;;;;;;;30.15;27.17;;;15.70;99.90;;;;;;5007148;28;20048;-80
2023/06/17 04:50:17;;;;;;;32.35;29.13;;;15.70;99.90;;;;;;5011904;28;20668;-80
2023/06/17 04:52:44;;;;;;;29.40;26.45;;;15.70;99.90;;;;;;4998218;28;20045;-81
2023/06/17 04:55:14;;;;;;;32.05;28.80;;;15.70;99.90;;;;;;5025070;28;20372;-80
2023/06/17 04:57:42;;;;;;;31.48;28.40;;;15.80;99.90;;;;;;5026056;28;20061;-80
2023/06/17 05:00:10;;;;;;;29.10;25.90;;;15.80;99.90;;;;;;5023412;28;20176;-80
2023/06/17 05:02:37;;;;;;;30.63;27.80;;;15.80;99.90;;;;;;5008980;28;20447;-80
2023/06/17 05:05:05;;;;;;;32.92;29.55;;;15.80;99.90;;;;;;5008656;28;20044;-80
2023/06/17 05:07:30;;;;;;;31.23;28.25;;;15.80;99.90;;;;;;5009236;28;20044;-81
2023/06/17 05:09:56;;;;;;;27.88;25.42;;;15.80;99.90;;;;;;5022667;28;20036;-81
2023/06/17 05:12:22;;;;;;;29.85;26.95;;;15.70;99.90;;;;;;5007793;28;20049;-80
2023/06/17 05:14:48;;;;;;;27.70;25.13;;;15.80;99.90;;;;;;5012313;28;20052;-81
2023/06/17 05:17:14;;;;;;;29.42;26.77;;;15.80;99.90;;;;;;5025752;28;20090;-80
2023/06/17 05:19:40;;;;;;;28.45;25.85;;;15.80;99.90;;;;;;5009860;28;20041;-73
2023/06/17 05:22:06;;;;;;;29.63;26.60;;;15.80;99.90;;;;;;5009962;28;20568;-74
2023/06/17 05:24:31;;;;;;;34.13;30.65;;;15.80;99.90;;;;;;5010803;28;20370;-73
2023/06/17 05:26:57;;;;;;;31.55;28.65;;;15.80;99.90;;;;;;5007074;28;20524;-73
2023/06/17 05:29:23;;;;;;;31.17;28.20;;;15.80;99.90;;;;;;4993918;28;20052;-73
2023/06/17 05:31:49;;;;;;;29.15;26.33;;;15.80;99.90;;;;;;5007531;28;20045;-73
2023/06/17 05:34:15;;;;;;;30.98;28.23;;;15.80;99.90;;;;;;4981055;28;20533;-73
2023/06/17 05:36:40;;;;;;;32.35;29.17;;;15.80;99.90;;;;;;4984966;28;20131;-73
2023/06/17 05:39:06;;;;;;;32.03;28.95;;;15.80;99.90;;;;;;4987265;28;20041;-73
2023/06/17 05:41:32;;;;;;;32.00;28.80;;;15.90;99.90;;;;;;4952719;28;20494;-73
2023/06/17 05:43:58;;;;;;;31.35;28.45;;;15.90;99.90;;;;;;5004212;28;20497;-73
2023/06/17 05:46:24;;;;;;;34.58;31.20;;;15.90;99.90;;;;;;4985823;28;21401;-73
2023/06/17 05:48:49;;;;;;;32.13;29.23;;;16.00;99.90;;;;;;5005158;28;20710;-73
2023/06/17 05:51:16;;;;;;;33.92;30.48;;;16.00;99.90;;;;;;4986987;28;20060;-72
2023/06/17 05:53:42;;;;;;;31.95;28.83;;;16.00;99.90;;;;;;5003481;28;20046;-73
2023/06/17 05:56:14;;;;;;;31.67;28.77;;;16.00;99.90;;;;;;4973157;28;20068;-73
2023/06/17 05:58:39;;;;;;;30.98;28.00;;;16.00;99.90;;;;;;5005023;28;20092;-72
2023/06/17 06:01:05;;;;;;;32.75;29.45;;;16.00;99.90;;;;;;5006005;28;20084;-73
2023/06/17 06:03:31;;;;;;;29.38;26.75;;;16.10;99.90;;;;;;4972644;28;20049;-73
2023/06/17 06:06:00;;;;;;;32.08;29.08;;;16.10;99.90;;;;;;4989176;28;20120;-73
2023/06/17 06:08:25;;;;;;;27.23;24.73;;;16.10;99.90;;;;;;4971882;28;20523;-72
2023/06/17 06:10:51;;;;;;;30.80;27.73;;;16.10;99.90;;;;;;5004983;28;20097;-73
2023/06/17 06:13:17;;;;;;;31.80;28.50;;;16.20;99.90;;;;;;5019980;28;20076;-72
2023/06/17 06:15:43;;;;;;;30.30;27.35;;;16.20;99.90;;;;;;5003426;28;20381;-73
2023/06/17 06:18:09;;;;;;;31.00;28.35;;;16.20;99.90;;;;;;4991135;28;20057;-72
2023/06/17 06:20:34;;;;;;;27.70;25.10;;;16.20;99.90;;;;;;5020264;28;20045;-73
2023/06/17 06:23:00;;;;;;;31.40;28.40;;;16.20;99.90;;;;;;4989894;28;20038;-73
2023/06/17 06:25:27;;;;;;;26.67;24.30;;;16.30;99.90;;;;;;4989747;28;20042;-74
2023/06/17 06:27:53;;;;;;;30.33;27.20;;;16.30;99.90;;;;;;4969911;28;20040;-73
2023/06/17 06:30:18;;;;;;;29.60;26.98;;;16.30;99.90;;;;;;5004046;28;20045;-73
2023/06/17 06:32:45;;;;;;;29.40;26.50;;;16.40;99.90;;;;;;5007422;28;20073;-74
2023/06/17 06:35:10;;;;;;;29.08;26.45;;;16.40;99.90;;;;;;5006044;28;20101;-73
2023/06/17 06:37:36;;;;;;;29.70;26.88;;;16.40;99.90;;;;;;5025619;28;20517;-74
2023/06/17 06:40:05;;;;;;;27.85;25.25;;;16.30;99.90;;;;;;5003742;28;20033;-74
2023/06/17 06:42:31;;;;;;;29.45;26.65;;;16.40;99.90;;;;;;5024080;28;20099;-73
2023/06/17 06:44:57;;;;;;;26.90;24.40;;;16.40;99.90;;;;;;5006001;28;20520;-73
2023/06/17 06:47:22;;;;;;;31.27;28.30;;;16.40;99.90;;;;;;5025749;28;20040;-73
2023/06/17 06:49:49;;;;;;;30.55;27.80;;;16.40;99.90;;;;;;5005236;28;20390;-73
2023/06/17 06:52:14;;;;;;;29.63;26.75;;;16.50;99.90;;;;;;4992767;28;20521;-73
2023/06/17 06:54:40;;;;;;;28.30;25.75;;;16.50;99.90;;;;;;5008188;28;20068;-73
2023/06/17 06:57:06;;;;;;;32.72;29.92;;;16.50;99.90;;;;;;5007450;28;20037;-73
2023/06/17 06:59:32;;;;;;;30.50;27.63;;;16.50;99.90;;;;;;5007825;28;20049;-73
2023/06/17 07:01:57;;;;;;;31.30;28.17;;;16.50;99.90;;;;;;4989330;28;20041;-73
2023/06/17 07:04:23;;;;;;;29.85;26.95;;;16.50;99.90;;;;;;5024289;28;20041;-74
2023/06/17 07:06:49;;;;;;;31.45;28.55;;;16.60;99.90;;;;;;5004086;28;20037;-73
2023/06/17 07:09:15;;;;;;;32.13;29.02;;;16.60;99.90;;;;;;5003981;28;20570;-73
2023/06/17 07:11:41;;;;;;;30.25;27.25;;;16.60;99.90;;;;;;5023282;28;20075;-73
2023/06/17 07:14:07;;;;;;;27.90;25.23;;;16.60;99.90;;;;;;4992080;28;20037;-73
2023/06/17 07:16:33;;;;;;;23.10;21.13;;;16.70;99.90;;;;;;5009248;28;20051;-73
2023/06/17 07:18:59;;;;;;;28.08;25.38;;;16.80;99.90;;;;;;5025260;28;20041;-72
2023/06/17 07:21:24;;;;;;;26.20;23.73;;;16.90;99.90;;;;;;5008317;28;20049;-73
2023/06/17 07:23:51;;;;;;;26.25;23.52;;;17.00;99.90;;;;;;5009529;28;20041;-73
2023/06/17 07:26:16;;;;;;;27.92;25.25;;;17.00;99.90;;;;;;5024745;28;20945;-73
2023/06/17 07:28:43;;;;;;;27.60;24.98;;;17.00;99.90;;;;;;4989136;28;20048;-74
2023/06/17 07:31:08;;;;;;;25.23;22.83;;;17.10;99.90;;;;;;5009172;28;20052;-74
2023/06/17 07:33:35;;;;;;;27.05;24.50;;;17.10;99.90;;;;;;5001303;28;20045;-74
2023/06/17 07:36:00;;;;;;;28.13;25.27;;;17.20;99.90;;;;;;4993211;28;20045;-73
2023/06/17 07:38:26;;;;;;;27.25;24.65;;;17.30;99.90;;;;;;5009416;28;20581;-73
2023/06/17 07:40:52;;;;;;;28.10;25.40;;;17.40;99.90;;;;;;5026496;28;20527;-74
2023/06/17 07:43:18;;;;;;;27.67;24.83;;;17.40;99.90;;;;;;4996357;28;20052;-74
2023/06/17 07:45:43;;;;;;;25.77;23.38;;;17.50;99.90;;;;;;4994233;28;20132;-74
2023/06/17 07:48:10;;;;;;;24.95;22.73;;;17.50;99.90;;;;;;5011159;28;20553;-73
2023/06/17 07:50:36;;;;;;;26.05;23.60;;;17.60;99.90;;;;;;5022882;28;20045;-72
2023/06/17 07:53:02;;;;;;;26.88;24.42;;;17.70;99.90;;;;;;5026667;28;20114;-74
2023/06/17 07:55:28;;;;;;;25.52;23.33;;;17.80;99.90;;;;;;4992782;28;20452;-73
2023/06/17 07:57:54;;;;;;;27.08;24.48;;;17.90;99.90;;;;;;4995377;28;20040;-81
2023/06/17 08:00:21;;;;;;;25.67;23.40;;;18.00;99.90;;;;;;4992311;28;20692;-81
2023/06/17 08:02:47;;;;;;;26.58;24.20;;;18.10;99.90;;;;;;5027485;28;20496;-81
2023/06/17 08:05:13;;;;;;;26.90;24.38;;;18.10;99.90;;;;;;5009156;28;20146;-82
2023/06/17 08:07:38;;;;;;;24.23;22.10;;;18.30;99.90;;;;;;5024127;28;20087;-81
2023/06/17 08:10:05;;;;;;;26.90;24.42;;;18.30;99.90;;;;;;5024641;28;20048;-81
2023/06/17 08:12:31;;;;;;;26.20;23.70;;;18.40;99.90;;;;;;5009659;28;20068;-81
2023/06/17 08:14:57;;;;;;;23.80;21.40;;;18.40;99.90;;;;;;4992148;28;20045;-81
2023/06/17 08:17:23;;;;;;;21.88;19.88;;;18.60;99.90;;;;;;5028099;28;20037;-81
2023/06/17 08:19:49;;;;;;;25.17;22.90;;;18.80;99.90;;;;;;5006537;28;20591;-80
2023/06/17 08:22:15;;;;;;;23.55;21.20;;;19.00;99.90;;;;;;5026499;28;20400;-80
2023/06/17 08:24:40;;;;;;;24.58;22.48;;;19.10;99.90;;;;;;5009382;28;20089;-80
2023/06/17 08:27:06;;;;;;;23.60;21.38;;;19.10;99.90;;;;;;4993464;28;20508;-81
2023/06/17 08:29:32;;;;;;;23.52;21.20;;;19.10;99.90;;;;;;5028026;28;20343;-80
2023/06/17 08:31:58;;;;;;;22.10;20.08;;;19.20;99.90;;;;;;5010807;28;20088;-81
2023/06/17 08:34:24;;;;;;;22.10;19.70;;;19.40;99.90;;;;;;5025122;28;20049;-81
2023/06/17 08:36:54;;;;;;;23.13;20.85;;;19.60;99.90;;;;;;5026317;28;20040;-74
2023/06/17 08:39:20;;;;;;;19.65;17.85;;;19.70;99.90;;;;;;5025641;28;20452;-72
2023/06/17 08:41:47;;;;;;;20.23;18.33;;;19.90;99.90;;;;;;5007258;28;20048;-72
2023/06/17 08:44:18;;;;;;;22.00;19.90;;;20.10;99.90;;;;;;4992042;28;20880;-72
2023/06/17 08:46:45;;;;;;;19.73;17.73;;;20.30;99.90;;;;;;5025293;28;20064;-72
2023/06/17 08:49:13;;;;;;;22.88;20.63;;;20.30;99.90;;;;;;5026530;28;20041;-73
2023/06/17 08:51:39;;;;;;;21.13;19.20;;;20.40;99.90;;;;;;5008452;28;20060;-73
2023/06/17 08:54:06;;;;;;;20.58;18.50;;;20.50;99.90;;;;;;4988744;28;20037;-72
2023/06/17 08:56:32;;;;;;;17.00;15.35;;;20.50;99.90;;;;;;5007485;28;20439;-72
2023/06/17 08:58:57;;;;;;;17.48;15.75;;;20.60;99.90;;;;;;4989897;28;20434;-72
2023/06/17 09:01:24;;;;;;;16.88;15.18;;;20.80;99.90;;;;;;5008712;28;20052;-73
2023/06/17 09:03:52;;;;;;;17.77;16.08;;;20.90;99.90;;;;;;4989312;28;20049;-72
2023/06/17 09:06:23;;;;;;;18.90;17.10;;;21.10;99.90;;;;;;5007132;28;20114;-72
2023/06/17 09:08:58;;;;;;;16.30;14.70;;;21.30;99.90;;;;;;5007408;28;20408;-72
2023/06/17 09:11:26;;;;;;;18.70;16.90;;;21.30;99.90;;;;;;5024568;28;20126;-72
2023/06/17 09:13:52;;;;;;;18.98;16.27;;;21.40;99.90;;;;;;5007089;28;20493;-73
2023/06/17 09:16:26;;;;;;;17.45;15.85;;;21.30;99.90;;;;;;5008918;28;20041;-72
2023/06/17 09:18:56;;;;;;;13.85;12.45;;;21.40;99.90;;;;;;5025585;28;20512;-72
2023/06/17 09:21:23;;;;;;;15.63;14.10;;;21.50;99.90;;;;;;5027737;28;20049;-73
2023/06/17 09:24:00;;;;;;;14.93;13.43;;;21.70;99.90;;;;;;5006734;28;20056;-72
2023/06/17 09:26:29;;;;;;;15.38;13.80;;;21.90;99.90;;;;;;5003451;28;20053;-73
2023/06/17 09:29:05;;;;;;;14.23;12.73;;;22.00;99.90;;;;;;5023770;28;20507;-72
2023/06/17 09:31:33;;;;;;;15.32;13.65;;;22.10;99.90;;;;;;5022901;28;20104;-73
2023/06/17 09:34:04;;;;;;;14.77;13.30;;;22.20;99.90;;;;;;4989238;28;20609;-72
2023/06/17 09:36:30;;;;;;;14.30;12.73;;;22.40;99.90;;;;;;5021271;28;20045;-72
2023/06/17 09:38:56;;;;;;;13.75;12.35;;;22.50;99.90;;;;;;5018241;28;20041;-72
2023/06/17 09:41:23;;;;;;;15.95;13.93;;;22.60;99.90;;;;;;5004879;28;20049;-72
2023/06/17 09:43:53;;;;;;;12.80;11.50;;;22.70;99.90;;;;;;4972391;28;20048;-72
2023/06/17 09:46:25;;;;;;;11.35;10.20;;;22.80;99.90;;;;;;4993263;28;20041;-72
2023/06/17 09:48:54;;;;;;;12.73;11.13;;;22.80;99.90;;;;;;4991138;28;20128;-73
2023/06/17 09:51:21;;;;;;;;;;;22.90;99.90;;;;;;5008076;28;20574;-73
2023/06/17 09:53:51;;;;;;;12.48;11.23;;;23.00;99.90;;;;;;5006927;28;19920;-80
2023/06/17 09:56:18;;;;;;;;;;;23.20;99.90;;;;;;5023374;28;20037;-79
2023/06/17 09:58:45;;;;;;;11.95;10.80;;;23.20;99.90;;;;;;5037707;28;19956;-80
2023/06/17 10:01:13;;;;;;;12.77;11.48;;;23.20;99.90;;;;;;4988707;28;20110;-79
2023/06/17 10:03:39;;;;;;;12.77;10.45;;;23.30;99.90;;;;;;4976079;28;20500;-80
2023/06/17 10:06:13;;;;;;;11.93;10.73;;;23.30;99.90;;;;;;5021484;28;20519;-80
2023/06/17 10:08:44;;;;;;;13.07;11.63;;;23.50;99.90;;;;;;5022885;28;20053;-80
2023/06/17 10:11:18;;;;;;;13.73;11.98;;;23.50;99.90;;;;;;5007769;28;20055;-80
2023/06/17 10:14:06;;;;;;;13.18;11.95;;;23.60;99.90;;;;;;5025861;28;20132;-80
2023/06/17 10:16:36;;;;;;;13.70;11.07;;;23.60;99.90;;;;;;5006334;28;20118;-80
2023/06/17 10:19:06;;;;;;;13.70;12.25;;;23.70;98.70;;;;;;5025967;28;20638;-79
2023/06/17 10:21:35;;;;;;;13.15;11.85;;;23.70;98.30;;;;;;5004616;28;20055;-80
2023/06/17 10:24:02;;;;;;;13.93;12.45;;;23.70;99.60;;;;;;5024933;28;20049;-80
2023/06/17 10:26:29;;;;;;;12.20;11.00;;;23.70;98.10;;;;;;5004433;28;20106;-80
2023/06/17 10:28:54;;;;;;;13.13;9.95;;;23.80;98.00;;;;;;5022566;28;20172;-80
2023/06/17 10:31:40;;;;;;;10.60;9.20;;;23.90;98.10;;;;;;5023608;28;20405;-79
2023/06/17 10:34:16;;;;;;;10.73;9.63;;;24.10;97.80;;;;;;5004551;28;20154;-80
2023/06/17 10:36:47;;;;;;;11.70;9.10;;;24.30;98.80;;;;;;5023132;28;20133;-80
2023/06/17 10:39:13;;;;;;;11.15;9.95;;;24.40;97.90;;;;;;5023545;28;20049;-80
2023/06/17 10:41:42;;;;;;;10.32;9.20;;;24.60;97.20;;;;;;5006379;28;20054;-80
2023/06/17 10:44:23;;;;;;;9.65;8.63;;;24.70;97.60;;;;;;5001935;28;20130;-80
2023/06/17 10:46:53;;;;;;;10.98;9.38;;;24.80;97.50;;;;;;5039677;28;20058;-81
2023/06/17 10:49:20;;;;;;;10.95;9.82;;;24.90;96.70;;;;;;5009359;28;20493;-79
2023/06/17 10:51:59;;;;;;;10.63;9.38;;;24.90;96.80;;;;;;5003761;28;20055;-80
2023/06/17 10:54:33;;;;;;;10.45;8.50;;;25.10;96.40;;;;;;5025590;28;20048;-79
2023/06/17 10:57:04;;;;;;;9.90;8.98;;;25.20;95.30;;;;;;5027163;28;20756;-79
2023/06/17 10:59:32;;;;;;;10.75;8.80;;;25.30;94.80;;;;;;5008519;28;20041;-73
2023/06/17 11:02:02;;;;;;;9.95;8.27;;;25.50;94.20;;;;;;5024831;28;20045;-73
2023/06/17 11:04:31;;;;;;;9.30;8.40;;;25.60;93.70;;;;;;5024897;28;20033;-73
2023/06/17 11:06:59;;;;;;;9.30;7.80;;;25.60;93.40;;;;;;5004401;28;20038;-73
2023/06/17 11:09:29;;;;;;;9.50;7.93;;;25.70;93.30;;;;;;5026388;28;20059;-73
2023/06/17 11:11:56;;;;;;;9.32;8.13;;;25.70;91.90;;;;;;5027507;28;20037;-74
2023/06/17 11:14:22;;;;;;;9.25;8.35;;;25.80;91.80;;;;;;5013505;28;20052;-73
2023/06/17 11:16:51;;;;;;;11.32;8.82;;;25.80;91.10;;;;;;5011240;28;20052;-73
2023/06/17 11:19:17;;;;;;;12.15;9.95;;;25.80;90.90;;;;;;5030557;28;20048;-73
2023/06/17 11:21:43;;;;;;;13.68;9.02;;;25.80;90.10;;;;;;4993172;28;20402;-73
2023/06/17 11:24:10;;;;;;;10.13;8.95;;;25.90;89.80;;;;;;5012588;28;20048;-73
2023/06/17 11:26:37;;;;;;;8.00;7.15;;;26.00;90.70;;;;;;5030989;28;20045;-73
2023/06/17 11:29:05;;;;;;;8.57;7.63;;;26.10;90.30;;;;;;5013070;28;20036;-73
2023/06/17 11:31:38;;;;;;;8.50;7.18;;;26.30;90.20;;;;;;5010244;28;20417;-73
2023/06/17 11:34:07;;;;;;;9.48;7.55;;;26.40;89.90;;;;;;5028391;28;20134;-73
2023/06/17 11:36:35;;;;;;;8.73;6.90;;;26.50;86.10;;;;;;5045357;28;20041;-73
2023/06/17 11:39:04;;;;;;;8.68;7.03;;;26.60;86.20;;;;;;5013818;28;20055;-73
2023/06/17 11:41:31;;;;;;;8.07;6.82;;;26.60;87.70;;;;;;5025617;28;20123;-74
2023/06/17 11:43:57;;;;;;;9.93;7.43;;;26.70;86.10;;;;;;5029732;28;20490;-73
2023/06/17 11:46:24;;;;;;;9.93;7.05;;;26.70;80.00;;;;;;5027071;28;20064;-73
2023/06/17 11:48:50;;;;;;;9.43;7.00;;;26.70;81.50;;;;;;5013513;28;20045;-73
2023/06/17 11:51:17;;;;;;;8.50;7.22;;;26.80;80.70;;;;;;5024936;28;20059;-74
2023/06/17 11:53:48;;;;;;;7.80;7.00;;;26.90;81.60;;;;;;5044758;28;20807;-80
2023/06/17 11:56:21;;;;;;;10.65;7.57;;;27.00;81.60;;;;;;5011553;28;20082;-80
2023/06/17 11:58:51;;;;;;;12.20;7.63;;;27.10;80.10;;;;;;5011189;28;20059;-81
2023/06/17 12:01:23;;;;;;;7.80;6.45;;;27.10;79.70;;;;;;5007972;28;20042;-80
2023/06/17 12:03:49;;;;;;;10.38;7.03;;;27.10;77.40;;;;;;5023956;28;20056;-72
2023/06/17 12:06:19;;;;;;;8.77;7.00;;;27.20;75.10;;;;;;5010257;28;20041;-73
2023/06/17 12:08:55;;;;;;;10.32;8.23;;;27.10;74.50;;;;;;5025527;28;20036;-73
2023/06/17 12:11:31;;;;;;;9.95;7.75;;;27.10;74.40;;;;;;5027568;28;20516;-72
2023/06/17 12:13:57;;;;;;;9.63;7.50;;;27.10;75.70;;;;;;5026245;28;20045;-73
2023/06/17 12:16:33;;;;;;;8.00;7.10;;;27.30;76.30;;;;;;5026756;28;20576;-73
2023/06/17 12:19:13;;;;;;;8.82;7.25;;;27.40;80.40;;;;;;5012245;28;20072;-72
2023/06/17 12:21:42;;;;;;;8.82;7.30;;;27.50;77.90;;;;;;5008784;28;20068;-72
2023/06/17 12:24:08;;;;;;;10.32;6.63;;;27.50;78.30;;;;;;5010340;28;20383;-73
2023/06/17 12:26:34;;;;;;;8.82;5.95;;;27.60;75.80;;;;;;5012598;28;20881;-73
2023/06/17 12:29:01;;;;;;;9.05;6.97;;;27.50;74.80;;;;;;5011816;28;20132;-73
2023/06/17 12:31:27;;;;;;;9.77;6.80;;;27.60;73.40;;;;;;4992878;28;20056;-74
2023/06/17 12:33:52;;;;;;;7.22;6.53;;;27.60;72.60;;;;;;5010862;28;20049;-73